Hills, Minnesota
Current Conditions -  °F | °C
As of 10:15 PM on Tuesday 25 Nov 2014 (Local Time) from KLYV Reporting Station
Light Snow Light Snow  
Wind Chill: 24°   Ceiling: 1200
Heat Index: 32°   Visibility: 2.5mi
Dew Point: 28°   Wind: 10mph
Humidity: 87%   Direction: 150°SSE
Pressure: 29.85"   Gusts: NA
Location:  43.53°N, 96.36°W
Report Text: KLYV 260415Z AUTO 15009KT 2 1/2SM -SN OVC012 00/M02 A2985 RMK AO2
Loading
Personal Weather Stations






























Interactive Weather Map New forecast layout! Learn more

10-Day Weather Forecast

Advertisements
Track Severe Weather on mobile